Aérodrome :
LOGIN :

S'inscrire | Disclaimer

   EN    FR    IT 

 










Légende :    VFR   VFR Marginal   IFR   IFR Intensif   IFR Très Intensif
Visi : 
Plafond : 
>= 8 km
>= 3000ft
5 à 8 km
1000 à 3000 ft
1500m à 5 km
500 à 1000 ft
800 à 1500m
200 à 500 ft
< 800m
< 200 ft
Symboles :   Orages  Brouillard  Fortes neiges  Fortes précipitations  Vent > 20 kt
SIGMETs :   Divers  Orages  Givrage  Turbulence  Onde Orograph.  Cendres Volcan.






- Altitude de l'aérodrome : 408 ft
- Code IATA : SOB


LHSM - Sarmellek Balaton

DERNIER METAR :
  • 270515Z AUTO 33004KT 1200 R16/P1500 BR VV002 M00/M00 Q1020

METARs EXPIRÉS :
  • 270445Z AUTO 34006KT 1400 R16/P1500 BR VV002 M00/M00 Q1019
  • 270415Z AUTO 33006KT 2500 BR OVC002 M00/M00 Q1020
  • 270345Z AUTO 35006KT 2000 BR VV003 M00/M00 Q1019
  • 270315Z AUTO 34005KT 2100 BR VV002 M00/M00 Q1020
  • 270245Z AUTO 35004KT 3800 BR BKN002 M00/M00 Q1020

Prévision TAF périmée.



MET'MAP, la Météo Aéronautique d'un coup d'oeil ! - Copyright ORBIFLY Décembre 2007 - Disclaimer

ORBIFLY MET'MAP TEAM :

Programmation & Développement : Alexandra Zaïnal
Sur une idée originale de : Baudouin d'Aumeries
Assistance à la programmation : Marc-Olivier Méhu
Soutien technique & logistique : Manuel Goepfert

Contact : metmap@orbifly.com




SOURCES & CREDITS :

   NOAA